• Join FlightAware (Why Join?)
  • Login
  • US Flag 
02:41AM EDT


 

Airport Tracker/Info


-or-


 

Live Flight TrackerFlight Track Log ✈ JBU56 ✈ 27-Nov-2013 ✈ KIAD - KBOS

Flight Track Log - Related Links

Times and Time Zones

All times are in EST time to prevent confusion due to time zone crossing. See the JBU56 flight status page for this flight to view local times or setup timezone preferences in your user account.

Time Position Orientation Groundspeed Altitude Reporting Facility
EST Latitude Longitude Course Direction KTS MPH feet Rate Location/Type
10:07AM 38.9833 -77.5167 90° East 164 189 3,400  Level Potomac TRACON
10:08AM 39.0167 -77.5500 322° Northwest 206 237 5,400 2,160 Climbing Potomac TRACON
10:09AM 39.0833 -77.5000 30° Northeast 282 325 7,600 2,220 Climbing Potomac TRACON
10:10AM 39.2198 -76.9914 67° East  Level Estimated
10:10AM 39.1500 -77.4333 38° Northeast 339 390 9,900  Level Potomac TRACON
10:11AM 39.2876 -76.8737 90° East  Level Estimated
10:11AM 39.1667 -77.3167 80° East 379 436 10,000  Level Potomac TRACON
10:12AM 39.3553 -76.7557 78° East  Level Estimated
10:12AM 39.1500 -77.2000 100° East 382 440 12,600  Level Potomac TRACON
10:13AM 39.4228 -76.6376 90° East  Level Estimated
10:13AM 39.1333 -77.0500 98° East 394 453 16,100  Level Potomac TRACON
10:14AM 39.1214 -76.8517 94° East 381 438 19,000 1,560 Climbing Washington Center
10:15AM 39.1250 -76.7047 88° East 399 459 20,100 1,260 Climbing Washington Center
10:16AM 39.1325 -76.5494 86° East 416 479 21,600 1,380 Climbing Washington Center
10:17AM 39.1400 -76.3917 86° East 430 495 23,000 660 Climbing Washington Center
10:18AM 39.1514 -76.2233 85° East 444 511 23,000  Level Washington Center
10:19AM 39.1708 -76.0736 80° East 462 532 23,000  Level Washington Center
10:20AM 39.1942 -75.9156 79° East 462 532 23,000 720 Level Washington Center
10:21AM 39.2736 -75.7792 53° Northeast 454 522 24,500 1,500 Climbing Washington Center
10:22AM 39.3739 -75.6506 45° Northeast 471 542 26,100 1,320 Climbing Washington Center
10:23AM 39.4761 -75.5164 45° Northeast 494 568 27,300 1,200 Climbing Washington Center
10:24AM 39.5781 -75.3814 46° Northeast 507 583 28,600 1,080 Climbing Washington Center
10:27AM 39.8239 -75.0333 47° Northeast 526 605 31,000 720 Climbing New York Center
10:28AM 39.9272 -74.8828 48° Northeast 541 623 31,000  Level New York Center
10:29AM 40.0217 -74.7392 49° Northeast 535 616 31,000  Level New York Center
10:30AM 40.0989 -74.6186 50° Northeast 535 616 31,000  Level New York Center
10:31AM 40.2103 -74.4511 49° Northeast 541 623 31,000  Level New York Center
10:32AM 40.3067 -74.3011 50° Northeast 541 623 31,000  Level New York Center
10:33AM 40.4753 -74.0403 50° Northeast 546 628 31,000  Level Boston Center
10:34AM 40.5700 -73.8981 49° Northeast 533 613 31,000 -60 Level Boston Center
10:35AM 40.6678 -73.7458 50° Northeast 538 619 30,900 -1,080 Descending Boston Center
10:37AM 40.7647 -73.5928 50° Northeast 541 623 28,800 -1,920 Descending Boston Center
10:38AM 40.8608 -73.4400 50° Northeast 541 623 27,000 -900 Descending Boston Center
10:39AM 40.9581 -73.2975 48° Northeast 534 615 27,000 -300 Level Boston Center
10:40AM 41.0553 -73.1542 48° Northeast 529 609 26,400 -1,380 Descending Boston Center
10:41AM 41.1522 -73.0089 48° Northeast 528 608 24,300 -1,680 Descending Boston Center
10:42AM 41.2356 -72.8625 53° Northeast 505 581 23,000 -660 Descending Boston Center
10:43AM 41.3017 -72.6942 62° Northeast 482 555 23,000  Level Boston Center
10:44AM 41.3611 -72.5336 64° Northeast 480 552 23,000  Level Boston Center
10:45AM 41.4208 -72.3700 64° Northeast 487 560 23,000  Level Boston Center
10:46AM 41.4794 -72.2053 65° Northeast 490 564 23,000 -660 Level Boston Center
10:47AM 41.5411 -72.0261 65° Northeast 490 564 21,700 -1,620 Descending Boston Center
10:48AM 41.5967 -71.8697 65° Northeast 470 541 19,800 -2,220 Descending Boston Center
10:49AM 41.6533 -71.7083 65° Northeast 447 514 17,300 -2,100 Descending Boston Center
10:50AM 41.6972 -71.5781 66° East 430 495 15,500 -1,980 Descending Boston Center
10:51AM 41.7542 -71.4181 64° Northeast 420 483 13,300 -1,980 Descending Boston Center
10:52AM 41.8111 -71.2878 60° Northeast 412 474 11,500 -1,200 Descending Boston Center
10:53AM 41.8858 -71.1653 51° Northeast 393 452 10,900 -780 Descending Boston Center
10:53AM 41.9333 -71.1000 46° Northeast 364 419 10,300 -1,500 Descending KA90
10:54AM 42.0000 -71.0000 48° Northeast 358 412 8,500 -1,740 Descending KA90
10:55AM 42.0500 -70.9000 56° Northeast 354 407 7,100 -1,440 Descending KA90
10:56AM 42.0747 -70.8572 52° Northeast 350 403 6,500 -720 Descending Boston Center
10:57AM 42.1292 -70.7669 51° Northeast 344 396 6,000 -300 Descending Boston Center
10:58AM 42.1889 -70.6683 51° Northeast 340 391 6,000 -300 Level Boston Center
10:58AM 42.2333 -70.5833 55° Northeast 339 390 5,600 -600 Descending KA90
10:59AM 42.3000 -70.5167 36° Northeast 333 383 5,100 -480 Descending KA90
11:00AM 42.3500 -70.5500 334° Northwest 228 262 4,800 -600 Descending KA90
11:01AM 42.4000 -70.6000 324° Northwest 231 266 4,100 -540 Descending KA90
11:02AM 42.4314 -70.6383 318° Northwest 233 268 4,000 -420 Descending Boston Center
11:03AM 42.4756 -70.6986 315° West 229 264 3,500 -540 Descending Boston Center
11:04AM 42.5153 -70.7631 310° West 225 259 3,000 -240 Descending Boston Center
11:05AM 42.5536 -70.8311 307° West 221 254 3,100  Climbing Boston Center
11:06AM 42.5525 -70.9019 269° West 189 217 3,000 -60 Descending Boston Center
11:07AM 42.5203 -70.9308 213° Southwest 143 165 3,000 -360 Level Boston Center
11:08AM 42.4814 -70.9492 199° South 146 168 2,300 -780 Descending Boston Center
11:09AM 42.4431 -70.9686 201° Southwest 137 158 1,500 -780 Descending Boston Center
11:10AM 42.4108 -70.9839 199° South 124 143 800 -480 Descending Boston Center
11:11AM 42.3814 -70.9975 199° South 124 143 600 -240 Descending Boston Center